Time;durP1;ratioP1;P1;durP2;ratioP2;P2;SDS_P1;SDS_P2;PMS_P1;PMS_P2;Temp;Humidity;BMP_temperature;BMP_pressure;BME280_temperature;BME280_humidity;BME280_pressure;Samples;Min_cycle;Max_cycle;Signal;HPM_P1;HPM_P2
2022/04/20 00:01:50;;;;;;;0.10;0.10;;;;;;;;;;5016041;28;20046;-68
2022/04/20 00:04:16;;;;;;;0.10;0.10;;;;;;;;;;5016354;28;20045;-68
2022/04/20 00:06:42;;;;;;;0.10;0.10;;;;;;;;;;5016218;28;20076;-68
2022/04/20 00:09:08;;;;;;;0.10;0.10;;;;;;;;;;5015867;28;20042;-68
2022/04/20 00:11:34;;;;;;;0.10;0.10;;;;;;;;;;5015911;28;20128;-68
2022/04/20 00:14:00;;;;;;;0.10;0.10;;;;;;;;;;5015423;28;20370;-68
2022/04/20 00:16:27;;;;;;;0.10;0.10;;;;;;;;;;5015480;28;20068;-68
2022/04/20 00:18:53;;;;;;;0.10;0.10;;;;;;;;;;5015431;28;20560;-68
2022/04/20 00:21:19;;;;;;;0.10;0.10;;;;;;;;;;5015375;28;20045;-68
2022/04/20 00:23:45;;;;;;;0.10;0.10;;;;;;;;;;5015642;28;20049;-68
2022/04/20 00:26:11;;;;;;;0.10;0.10;;;;;;;;;;5016121;28;20081;-68
2022/04/20 00:28:37;;;;;;;0.00;0.00;;;;;;;;;;5015123;28;20086;-68
2022/04/20 00:31:03;;;;;;;0.15;0.15;;;;;;;;;;4998409;28;20440;-68
2022/04/20 00:33:30;;;;;;;0.10;0.10;;;;;;;;;;5015449;28;20172;-68
2022/04/20 00:35:56;;;;;;;0.10;0.10;;;;;;;;;;5015405;28;20099;-68
2022/04/20 00:38:22;;;;;;;0.10;0.10;;;;;;;;;;5015294;28;20530;-68
2022/04/20 00:40:49;;;;;;;0.10;0.10;;;;;;;;;;5015376;28;20200;-68
2022/04/20 00:43:16;;;;;;;0.00;0.00;;;;;;;;;;5014792;28;20064;-68
2022/04/20 00:45:42;;;;;;;0.10;0.10;;;;;;;;;;5015340;28;20508;-68
2022/04/20 00:48:12;;;;;;;0.00;0.00;;;;;;;;;;5015433;28;20133;-68
2022/04/20 00:50:39;;;;;;;0.10;0.10;;;;;;;;;;5015308;28;20121;-68
2022/04/20 00:53:05;;;;;;;0.10;0.10;;;;;;;;;;5015098;28;20034;-68
2022/04/20 00:55:32;;;;;;;0.10;0.10;;;;;;;;;;5014659;28;20050;-68
2022/04/20 00:57:58;;;;;;;0.10;0.10;;;;;;;;;;5015126;28;20129;-68
2022/04/20 01:00:27;;;;;;;0.10;0.10;;;;;;;;;;5015001;28;20121;-68
2022/04/20 01:02:53;;;;;;;0.10;0.10;;;;;;;;;;5014747;28;20041;-68
2022/04/20 01:05:21;;;;;;;0.20;0.20;;;;;;;;;;5015549;28;20053;-68
2022/04/20 01:07:48;;;;;;;0.10;0.10;;;;;;;;;;5014893;28;20050;-68
2022/04/20 01:10:14;;;;;;;0.00;0.00;;;;;;;;;;5015184;28;20041;-68
2022/04/20 01:12:44;;;;;;;0.10;0.10;;;;;;;;;;5014482;28;20076;-68
2022/04/20 01:15:12;;;;;;;0.10;0.10;;;;;;;;;;5014478;28;20042;-68
2022/04/20 01:17:38;;;;;;;0.10;0.10;;;;;;;;;;5014241;28;20038;-68
2022/04/20 01:20:05;;;;;;;0.00;0.00;;;;;;;;;;5014825;28;20523;-68
2022/04/20 01:22:31;;;;;;;0.10;0.10;;;;;;;;;;5015046;28;20041;-68
2022/04/20 01:24:57;;;;;;;0.00;0.00;;;;;;;;;;5014779;28;20052;-68
2022/04/20 01:27:24;;;;;;;0.30;0.20;;;;;;;;;;5014008;28;20081;-68
2022/04/20 01:29:50;;;;;;;0.10;0.10;;;;;;;;;;5015053;28;20041;-68
2022/04/20 01:32:16;;;;;;;0.10;0.10;;;;;;;;;;5015058;28;20038;-68
2022/04/20 01:34:42;;;;;;;0.10;0.10;;;;;;;;;;5014628;28;20046;-68
2022/04/20 01:37:09;;;;;;;0.10;0.10;;;;;;;;;;5015368;28;20052;-68
2022/04/20 01:39:35;;;;;;;0.10;0.10;;;;;;;;;;5014899;28;20048;-68
2022/04/20 01:42:01;;;;;;;0.10;0.10;;;;;;;;;;5014724;28;20041;-68
2022/04/20 01:44:27;;;;;;;0.10;0.10;;;;;;;;;;5014792;28;20048;-68
2022/04/20 01:46:53;;;;;;;0.10;0.10;;;;;;;;;;5015097;28;20046;-68
2022/04/20 01:49:19;;;;;;;0.20;0.20;;;;;;;;;;5014835;28;20069;-68
2022/04/20 01:51:52;;;;;;;0.10;0.10;;;;;;;;;;5014481;28;20451;-68
2022/04/20 01:54:21;;;;;;;0.10;0.10;;;;;;;;;;5014761;28;20081;-68
2022/04/20 01:56:47;;;;;;;0.10;0.10;;;;;;;;;;5014678;28;20493;-68
2022/04/20 01:59:14;;;;;;;0.10;0.10;;;;;;;;;;5014672;28;20381;-68
2022/04/20 02:04:25;;;;;;;0.10;0.10;;;;;;;;;;5014201;28;20480;-68
2022/04/20 02:06:51;;;;;;;0.10;0.10;;;;;;;;;;5016186;28;20046;-68
2022/04/20 02:09:17;;;;;;;0.00;0.00;;;;;;;;;;5018708;28;20052;-68
2022/04/20 02:11:43;;;;;;;0.10;0.10;;;;;;;;;;5018270;28;20046;-68
2022/04/20 02:14:10;;;;;;;0.17;0.17;;;;;;;;;;5018858;28;20057;-68
2022/04/20 02:16:36;;;;;;;0.10;0.10;;;;;;;;;;5018301;28;20076;-68
2022/04/20 02:19:03;;;;;;;0.10;0.10;;;;;;;;;;5017964;28;20037;-68
2022/04/20 02:21:29;;;;;;;0.20;0.20;;;;;;;;;;5018238;28;20042;-68
2022/04/20 02:23:55;;;;;;;0.10;0.10;;;;;;;;;;5018166;28;20497;-68
2022/04/20 02:26:21;;;;;;;0.10;0.10;;;;;;;;;;5017954;28;20062;-68
2022/04/20 02:28:48;;;;;;;0.00;0.00;;;;;;;;;;5017979;28;20129;-68
2022/04/20 02:31:14;;;;;;;0.10;0.10;;;;;;;;;;5018593;28;20046;-68
2022/04/20 02:33:41;;;;;;;0.00;0.00;;;;;;;;;;5017709;28;20054;-68
2022/04/20 02:36:07;;;;;;;0.10;0.10;;;;;;;;;;5017964;28;20041;-68
2022/04/20 02:38:34;;;;;;;0.10;0.10;;;;;;;;;;5018069;28;20070;-68
2022/04/20 02:41:01;;;;;;;0.10;0.10;;;;;;;;;;5000223;28;20388;-68
2022/04/20 02:43:27;;;;;;;0.10;0.10;;;;;;;;;;5017632;28;20046;-68
2022/04/20 02:45:55;;;;;;;0.00;0.00;;;;;;;;;;5018299;28;20099;-68
2022/04/20 02:48:21;;;;;;;0.10;0.10;;;;;;;;;;5017535;28;20050;-68
2022/04/20 02:50:47;;;;;;;0.10;0.10;;;;;;;;;;5017644;28;20046;-68
2022/04/20 02:53:13;;;;;;;0.00;0.00;;;;;;;;;;5017351;28;20034;-68
2022/04/20 02:55:42;;;;;;;0.10;0.10;;;;;;;;;;5017624;28;20465;-68
2022/04/20 02:58:08;;;;;;;0.10;0.10;;;;;;;;;;5017060;28;20049;-68
2022/04/20 03:00:34;;;;;;;0.10;0.10;;;;;;;;;;5018047;28;20124;-68
2022/04/20 03:03:01;;;;;;;0.10;0.10;;;;;;;;;;5017649;28;20045;-68
2022/04/20 03:05:27;;;;;;;0.10;0.10;;;;;;;;;;5017611;28;20153;-68
2022/04/20 03:07:53;;;;;;;0.10;0.10;;;;;;;;;;5017073;28;20042;-68
2022/04/20 03:10:19;;;;;;;0.10;0.10;;;;;;;;;;5017327;28;20056;-68
2022/04/20 03:12:45;;;;;;;0.10;0.10;;;;;;;;;;5016840;28;20420;-68
2022/04/20 03:15:11;;;;;;;0.00;0.00;;;;;;;;;;5017181;28;20080;-68
2022/04/20 03:17:37;;;;;;;0.10;0.10;;;;;;;;;;5017095;28;20124;-68
2022/04/20 03:20:04;;;;;;;0.10;0.10;;;;;;;;;;5017235;28;20045;-68
2022/04/20 03:22:30;;;;;;;0.10;0.10;;;;;;;;;;5017461;28;20041;-68
2022/04/20 03:24:56;;;;;;;0.10;0.10;;;;;;;;;;5016772;28;20498;-68
2022/04/20 03:27:22;;;;;;;0.10;0.10;;;;;;;;;;5016911;28;20496;-68
2022/04/20 03:29:48;;;;;;;0.10;0.10;;;;;;;;;;5016725;28;20034;-68
2022/04/20 03:32:15;;;;;;;0.10;0.10;;;;;;;;;;5016603;28;20048;-68
2022/04/20 03:34:42;;;;;;;0.10;0.10;;;;;;;;;;5016349;28;20041;-68
2022/04/20 03:37:12;;;;;;;0.10;0.10;;;;;;;;;;5016952;28;20046;-68
2022/04/20 03:39:38;;;;;;;0.10;0.10;;;;;;;;;;5016472;28;20046;-68
2022/04/20 03:42:05;;;;;;;0.10;0.10;;;;;;;;;;5016251;28;20069;-68
2022/04/20 03:44:31;;;;;;;0.00;0.00;;;;;;;;;;5016669;28;20050;-68
2022/04/20 03:46:57;;;;;;;0.20;0.20;;;;;;;;;;5016524;28;20081;-68
2022/04/20 03:49:24;;;;;;;0.00;0.00;;;;;;;;;;5016235;28;20064;-68
2022/04/20 03:51:50;;;;;;;0.00;0.00;;;;;;;;;;5016274;28;20065;-68
2022/04/20 03:54:16;;;;;;;0.00;0.00;;;;;;;;;;5015825;28;20049;-68
2022/04/20 03:59:27;;;;;;;0.10;0.10;;;;;;;;;;5017957;28;20045;-68
2022/04/20 04:01:54;;;;;;;0.00;0.00;;;;;;;;;;5015506;28;20523;-68
2022/04/20 04:04:20;;;;;;;0.10;0.10;;;;;;;;;;5015450;28;20141;-68
2022/04/20 04:06:47;;;;;;;0.10;0.10;;;;;;;;;;5015775;28;20128;-68
2022/04/20 04:09:13;;;;;;;0.10;0.10;;;;;;;;;;5015763;28;20563;-68
2022/04/20 04:11:39;;;;;;;0.00;0.00;;;;;;;;;;5015913;28;20042;-68
2022/04/20 04:14:05;;;;;;;0.10;0.10;;;;;;;;;;5010439;28;20054;-68
2022/04/20 04:16:36;;;;;;;0.10;0.10;;;;;;;;;;5015539;28;20540;-68
2022/04/20 04:19:06;;;;;;;0.10;0.10;;;;;;;;;;5014599;28;20052;-68
2022/04/20 04:21:33;;;;;;;0.10;0.10;;;;;;;;;;5017223;28;20041;-68
2022/04/20 04:23:59;;;;;;;0.10;0.10;;;;;;;;;;5024979;28;20049;-68
2022/04/20 04:26:27;;;;;;;0.00;0.00;;;;;;;;;;5015066;28;20096;-68
2022/04/20 04:28:54;;;;;;;0.10;0.10;;;;;;;;;;5013211;28;20069;-68
2022/04/20 04:31:21;;;;;;;0.00;0.00;;;;;;;;;;5015686;28;20091;-69
2022/04/20 04:33:47;;;;;;;0.10;0.10;;;;;;;;;;5015512;28;20128;-68
2022/04/20 04:36:13;;;;;;;0.10;0.10;;;;;;;;;;5015493;28;20041;-68
2022/04/20 04:38:39;;;;;;;0.10;0.10;;;;;;;;;;5015076;28;20041;-69
2022/04/20 04:41:05;;;;;;;0.00;0.00;;;;;;;;;;5014649;28;20041;-69
2022/04/20 04:43:31;;;;;;;0.10;0.10;;;;;;;;;;5015049;28;20073;-69
2022/04/20 04:48:43;;;;;;;0.10;0.10;;;;;;;;;;5015064;28;20045;-69
2022/04/20 04:51:10;;;;;;;0.00;0.00;;;;;;;;;;5014693;28;20034;-69
2022/04/20 04:53:39;;;;;;;0.08;0.08;;;;;;;;;;5015194;28;20045;-69
2022/04/20 04:56:05;;;;;;;0.10;0.10;;;;;;;;;;5015071;28;20101;-69
2022/04/20 04:58:31;;;;;;;0.10;0.10;;;;;;;;;;5015365;28;20045;-68
2022/04/20 05:01:00;;;;;;;0.10;0.10;;;;;;;;;;5014411;28;20050;-69
2022/04/20 05:03:27;;;;;;;0.20;0.20;;;;;;;;;;5013898;28;20034;-69
2022/04/20 05:05:54;;;;;;;0.10;0.10;;;;;;;;;;5012604;28;20036;-69
2022/04/20 05:08:20;;;;;;;0.00;0.00;;;;;;;;;;5014478;28;20073;-69
2022/04/20 05:10:46;;;;;;;0.10;0.10;;;;;;;;;;5014461;28;20034;-69
2022/04/20 05:13:12;;;;;;;0.10;0.10;;;;;;;;;;5014278;28;20034;-69
2022/04/20 05:15:38;;;;;;;0.00;0.00;;;;;;;;;;5014420;28;20050;-69
2022/04/20 05:18:04;;;;;;;0.10;0.10;;;;;;;;;;5014406;28;20469;-69
2022/04/20 05:20:31;;;;;;;0.10;0.10;;;;;;;;;;5013880;28;20072;-69
2022/04/20 05:22:57;;;;;;;0.10;0.10;;;;;;;;;;5014334;28;20030;-69
2022/04/20 05:25:23;;;;;;;0.05;0.05;;;;;;;;;;5014216;28;20049;-69
2022/04/20 05:27:49;;;;;;;0.10;0.10;;;;;;;;;;5013938;28;20053;-69
2022/04/20 05:30:15;;;;;;;0.00;0.00;;;;;;;;;;5014586;28;20567;-69
2022/04/20 05:32:42;;;;;;;0.10;0.10;;;;;;;;;;5012782;28;20056;-68
2022/04/20 05:35:09;;;;;;;0.10;0.10;;;;;;;;;;5012997;28;20046;-68
2022/04/20 05:43:05;;;;;;;0.00;0.00;;;;;;;;;;5017491;28;20044;-68
2022/04/20 05:45:31;;;;;;;0.10;0.10;;;;;;;;;;5018818;28;20045;-68
2022/04/20 05:48:01;;;;;;;0.00;0.00;;;;;;;;;;5018588;28;20103;-68
2022/04/20 05:50:27;;;;;;;0.10;0.10;;;;;;;;;;5019387;28;20037;-68
2022/04/20 05:52:53;;;;;;;0.10;0.10;;;;;;;;;;5018534;28;20125;-68
2022/04/20 05:55:20;;;;;;;0.47;0.20;;;;;;;;;;5017469;28;20136;-69
2022/04/20 05:57:49;;;;;;;0.52;0.52;;;;;;;;;;5024019;28;20102;-68
2022/04/20 06:00:16;;;;;;;0.43;0.30;;;;;;;;;;5023448;28;20121;-68
2022/04/20 06:02:43;;;;;;;0.10;0.10;;;;;;;;;;5017987;28;20180;-68
2022/04/20 06:05:09;;;;;;;0.10;0.10;;;;;;;;;;5021082;28;20034;-68
2022/04/20 06:10:39;;;;;;;0.10;0.10;;;;;;;;;;5012715;28;20025;-68
2022/04/20 06:13:06;;;;;;;0.10;0.10;;;;;;;;;;5018088;28;20037;-68
2022/04/20 06:15:33;;;;;;;0.10;0.10;;;;;;;;;;5017646;28;20045;-68
2022/04/20 06:17:59;;;;;;;0.10;0.10;;;;;;;;;;5017606;28;20053;-69
2022/04/20 06:20:25;;;;;;;0.10;0.10;;;;;;;;;;5017342;28;20513;-70
2022/04/20 06:22:51;;;;;;;0.10;0.10;;;;;;;;;;5030006;28;20128;-69
2022/04/20 06:25:17;;;;;;;0.10;0.10;;;;;;;;;;5017220;28;20049;-68
2022/04/20 06:27:43;;;;;;;0.10;0.10;;;;;;;;;;5028126;28;20056;-68
2022/04/20 06:30:10;;;;;;;0.10;0.10;;;;;;;;;;5017620;28;20034;-68
2022/04/20 06:32:36;;;;;;;0.30;0.30;;;;;;;;;;5017202;28;20044;-68
2022/04/20 06:35:03;;;;;;;0.10;0.10;;;;;;;;;;5017567;28;20528;-68
2022/04/20 06:37:29;;;;;;;0.10;0.10;;;;;;;;;;5017064;28;20530;-68
2022/04/20 06:39:56;;;;;;;0.10;0.10;;;;;;;;;;5017393;28;20042;-68
2022/04/20 06:42:23;;;;;;;0.10;0.10;;;;;;;;;;5017367;28;20546;-68
2022/04/20 06:44:49;;;;;;;0.10;0.10;;;;;;;;;;5017513;28;20053;-68
2022/04/20 06:47:15;;;;;;;0.00;0.00;;;;;;;;;;5034106;28;20049;-70
2022/04/20 06:49:42;;;;;;;0.00;0.00;;;;;;;;;;5029437;28;20037;-68
2022/04/20 07:00:22;;;;;;;0.10;0.10;;;;;;;;;;4997194;28;20061;-69
2022/04/20 07:02:58;;;;;;;0.10;0.10;;;;;;;;;;4997518;28;20124;-69
2022/04/20 07:05:24;;;;;;;0.10;0.10;;;;;;;;;;4997915;28;20486;-69
2022/04/20 07:07:50;;;;;;;0.55;0.30;;;;;;;;;;5003805;28;20034;-69
2022/04/20 07:10:17;;;;;;;0.10;0.10;;;;;;;;;;5016794;28;20504;-69
2022/04/20 07:12:43;;;;;;;0.10;0.10;;;;;;;;;;5016535;28;20508;-68
2022/04/20 07:15:09;;;;;;;0.03;0.03;;;;;;;;;;5016894;28;20049;-67
2022/04/20 07:17:35;;;;;;;0.10;0.10;;;;;;;;;;5015711;28;20045;-68
2022/04/20 07:20:02;;;;;;;0.00;0.00;;;;;;;;;;5016291;28;20151;-68
2022/04/20 07:22:28;;;;;;;0.08;0.08;;;;;;;;;;5016543;28;20041;-68
2022/04/20 07:24:54;;;;;;;0.20;0.20;;;;;;;;;;5016382;28;20042;-67
2022/04/20 07:27:20;;;;;;;0.10;0.10;;;;;;;;;;5016324;28;20065;-68
2022/04/20 07:29:46;;;;;;;0.00;0.00;;;;;;;;;;5016781;28;20049;-68
2022/04/20 07:32:12;;;;;;;0.10;0.10;;;;;;;;;;5016598;28;20048;-68
2022/04/20 07:34:39;;;;;;;0.10;0.10;;;;;;;;;;5022589;28;20050;-67
2022/04/20 07:37:05;;;;;;;0.00;0.00;;;;;;;;;;5035455;28;20047;-68
2022/04/20 07:39:31;;;;;;;0.05;0.05;;;;;;;;;;5034365;28;20041;-68
2022/04/20 07:41:57;;;;;;;0.20;0.20;;;;;;;;;;5019139;28;20042;-68
2022/04/20 07:44:23;;;;;;;0.10;0.10;;;;;;;;;;5016367;28;20493;-68
2022/04/20 07:46:49;;;;;;;0.10;0.10;;;;;;;;;;5016155;28;20038;-68
2022/04/20 07:52:00;;;;;;;0.10;0.10;;;;;;;;;;5015710;28;20412;-68
2022/04/20 07:54:26;;;;;;;0.10;0.10;;;;;;;;;;5016165;28;20056;-68
2022/04/20 07:56:52;;;;;;;0.10;0.10;;;;;;;;;;5014602;28;20038;-68
2022/04/20 07:59:18;;;;;;;0.10;0.10;;;;;;;;;;5015352;28;20038;-68
2022/04/20 08:01:44;;;;;;;0.20;0.20;;;;;;;;;;5015131;28;20493;-66
2022/04/20 08:04:11;;;;;;;0.10;0.10;;;;;;;;;;5024092;28;20049;-68
2022/04/20 08:06:37;;;;;;;0.10;0.10;;;;;;;;;;5036318;28;20072;-68
2022/04/20 08:09:03;;;;;;;0.10;0.10;;;;;;;;;;5035634;28;20460;-68
2022/04/20 08:11:29;;;;;;;0.10;0.10;;;;;;;;;;5035746;28;20045;-68
2022/04/20 08:14:11;;;;;;;0.10;0.10;;;;;;;;;;5035012;28;20049;-68
2022/04/20 08:16:37;;;;;;;0.15;0.15;;;;;;;;;;5035325;28;20049;-68
2022/04/20 08:19:04;;;;;;;0.10;0.10;;;;;;;;;;5035503;28;20037;-68
2022/04/20 08:21:30;;;;;;;0.10;0.10;;;;;;;;;;5036233;28;20056;-68
2022/04/20 08:23:56;;;;;;;0.10;0.10;;;;;;;;;;5035422;28;20049;-68
2022/04/20 08:26:22;;;;;;;0.10;0.10;;;;;;;;;;5035489;28;20145;-68
2022/04/20 08:28:49;;;;;;;0.10;0.10;;;;;;;;;;5035657;28;20057;-68
2022/04/20 08:31:15;;;;;;;0.28;0.28;;;;;;;;;;5035347;28;20476;-68
2022/04/20 08:33:41;;;;;;;0.22;0.22;;;;;;;;;;5035497;28;20037;-68
2022/04/20 08:36:08;;;;;;;0.10;0.10;;;;;;;;;;5036067;28;20136;-68
2022/04/20 08:38:34;;;;;;;0.10;0.10;;;;;;;;;;5035616;28;20041;-68
2022/04/20 08:41:01;;;;;;;0.10;0.10;;;;;;;;;;5035193;28;20045;-68
2022/04/20 08:43:29;;;;;;;0.10;0.10;;;;;;;;;;5035316;28;20033;-68
2022/04/20 08:46:02;;;;;;;0.10;0.10;;;;;;;;;;5035054;28;20043;-68
2022/04/20 08:48:29;;;;;;;0.10;0.10;;;;;;;;;;5035453;28;20045;-68
2022/04/20 08:50:55;;;;;;;0.10;0.10;;;;;;;;;;5034999;28;20041;-68
2022/04/20 08:53:22;;;;;;;0.10;0.10;;;;;;;;;;5034826;28;20045;-68
2022/04/20 08:55:48;;;;;;;0.10;0.10;;;;;;;;;;5035111;28;20054;-68
2022/04/20 08:58:34;;;;;;;1.10;0.32;;;;;;;;;;5034292;28;20075;-68
2022/04/20 09:01:00;;;;;;;0.10;0.10;;;;;;;;;;5030683;28;20041;-68
2022/04/20 09:03:27;;;;;;;0.10;0.10;;;;;;;;;;5014849;28;20095;-68
2022/04/20 09:05:54;;;;;;;0.10;0.10;;;;;;;;;;5015432;28;20037;-68
2022/04/20 09:08:20;;;;;;;0.10;0.10;;;;;;;;;;5024626;28;20048;-68
2022/04/20 09:10:46;;;;;;;0.20;0.20;;;;;;;;;;5022345;28;20042;-67
2022/04/20 09:13:13;;;;;;;0.10;0.10;;;;;;;;;;5022649;28;20034;-68
2022/04/20 09:15:40;;;;;;;0.10;0.10;;;;;;;;;;5034343;28;20056;-68
2022/04/20 09:18:08;;;;;;;0.20;0.20;;;;;;;;;;5019182;28;20042;-68
2022/04/20 09:20:35;;;;;;;0.10;0.10;;;;;;;;;;5015673;28;20053;-68
2022/04/20 09:23:04;;;;;;;0.25;0.25;;;;;;;;;;5014681;28;20065;-68
2022/04/20 09:25:31;;;;;;;0.10;0.10;;;;;;;;;;5015396;28;20127;-71
2022/04/20 09:27:57;;;;;;;0.10;0.10;;;;;;;;;;5015590;28;20137;-68
2022/04/20 09:30:23;;;;;;;0.30;0.30;;;;;;;;;;5015046;28;20042;-68
2022/04/20 09:32:49;;;;;;;0.10;0.10;;;;;;;;;;5014963;28;20044;-68
2022/04/20 09:35:18;;;;;;;0.08;0.08;;;;;;;;;;5014572;28;20120;-68
2022/04/20 09:37:45;;;;;;;0.10;0.10;;;;;;;;;;5014655;28;20069;-68
2022/04/20 09:40:12;;;;;;;0.10;0.10;;;;;;;;;;5015116;28;20592;-68
2022/04/20 09:42:39;;;;;;;0.10;0.10;;;;;;;;;;5014643;28;20037;-68
2022/04/20 09:45:07;;;;;;;0.10;0.10;;;;;;;;;;5014810;28;20044;-68
2022/04/20 09:50:25;;;;;;;0.10;0.10;;;;;;;;;;5014358;28;20117;-68
2022/04/20 09:52:55;;;;;;;0.10;0.10;;;;;;;;;;5014659;28;20512;-68
2022/04/20 09:55:31;;;;;;;0.15;0.15;;;;;;;;;;5014411;28;20092;-68
2022/04/20 09:58:19;;;;;;;0.10;0.10;;;;;;;;;;5014873;28;20050;-68
2022/04/20 10:00:54;;;;;;;0.05;0.05;;;;;;;;;;5014779;28;20111;-68
2022/04/20 10:03:31;;;;;;;0.10;0.10;;;;;;;;;;5014993;28;20499;-68
2022/04/20 10:05:58;;;;;;;0.20;0.20;;;;;;;;;;4997678;28;20424;-68
2022/04/20 10:08:24;;;;;;;0.13;0.13;;;;;;;;;;5014346;28;20414;-68
2022/04/20 10:10:52;;;;;;;0.10;0.10;;;;;;;;;;5014370;28;20052;-68
2022/04/20 10:13:19;;;;;;;0.10;0.10;;;;;;;;;;5014152;28;20038;-68
2022/04/20 10:16:09;;;;;;;0.35;0.35;;;;;;;;;;5014523;28;20046;-68
2022/04/20 10:18:39;;;;;;;0.10;0.10;;;;;;;;;;5014276;28;20133;-68
2022/04/20 10:21:12;;;;;;;0.10;0.10;;;;;;;;;;5015142;28;20042;-68
2022/04/20 10:23:43;;;;;;;0.30;0.30;;;;;;;;;;5014689;28;20095;-68
2022/04/20 10:26:09;;;;;;;;;;;;;;;;;;5014686;28;20046;-68
2022/04/20 10:28:45;;;;;;;0.10;0.10;;;;;;;;;;5016430;28;19996;-68
2022/04/20 10:31:30;;;;;;;0.10;0.10;;;;;;;;;;5017528;28;20100;-68
2022/04/20 10:33:57;;;;;;;0.10;0.10;;;;;;;;;;5016664;28;20073;-68
2022/04/20 10:36:30;;;;;;;0.10;0.10;;;;;;;;;;5017218;28;20073;-68
2022/04/20 10:39:15;;;;;;;0.00;0.00;;;;;;;;;;5017340;28;20042;-68
2022/04/20 10:41:41;;;;;;;0.08;0.08;;;;;;;;;;5017166;28;20037;-68
2022/04/20 10:44:07;;;;;;;0.10;0.10;;;;;;;;;;5022021;28;20119;-68
2022/04/20 10:46:34;;;;;;;0.10;0.10;;;;;;;;;;5017152;28;20042;-70
2022/04/20 10:49:02;;;;;;;0.17;0.17;;;;;;;;;;5017996;28;20115;-68
2022/04/20 10:51:34;;;;;;;0.10;0.10;;;;;;;;;;5017045;28;20484;-69
2022/04/20 10:54:18;;;;;;;0.10;0.10;;;;;;;;;;5016440;28;20128;-68
2022/04/20 10:56:48;;;;;;;0.10;0.10;;;;;;;;;;5016915;28;20046;-68
2022/04/20 10:59:14;;;;;;;0.10;0.10;;;;;;;;;;5016849;28;20044;-68
2022/04/20 11:01:58;;;;;;;0.10;0.10;;;;;;;;;;5017249;28;20041;-68
2022/04/20 11:04:46;;;;;;;0.10;0.10;;;;;;;;;;5017202;28;20042;-68
2022/04/20 11:07:17;;;;;;;0.20;0.20;;;;;;;;;;5016858;28;20038;-70
2022/04/20 11:09:44;;;;;;;0.10;0.10;;;;;;;;;;5017065;28;20034;-68
2022/04/20 11:21:03;;;;;;;0.10;0.10;;;;;;;;;;5016438;28;20053;-68
2022/04/20 11:23:48;;;;;;;0.10;0.10;;;;;;;;;;5008157;28;20034;-68
2022/04/20 11:26:16;;;;;;;0.10;0.10;;;;;;;;;;4997503;28;20121;-68
2022/04/20 11:28:42;;;;;;;0.10;0.10;;;;;;;;;;4996690;28;20054;-68
2022/04/20 11:31:09;;;;;;;0.10;0.10;;;;;;;;;;4997130;28;20050;-68
2022/04/20 11:33:36;;;;;;;0.10;0.10;;;;;;;;;;4997026;28;20034;-68
2022/04/20 11:36:02;;;;;;;0.10;0.10;;;;;;;;;;4997300;28;20093;-68
2022/04/20 11:38:38;;;;;;;0.10;0.10;;;;;;;;;;4996781;28;20050;-68
2022/04/20 11:41:05;;;;;;;0.15;0.15;;;;;;;;;;4997451;28;20038;-68
2022/04/20 11:43:31;;;;;;;0.10;0.10;;;;;;;;;;4996406;28;20035;-68
2022/04/20 11:45:58;;;;;;;2.10;0.82;;;;;;;;;;4996842;28;20576;-68
2022/04/20 11:48:25;;;;;;;0.35;0.35;;;;;;;;;;4996822;28;20053;-68
2022/04/20 11:50:58;;;;;;;0.13;0.13;;;;;;;;;;4996759;28;20070;-68
2022/04/20 11:53:38;;;;;;;0.43;0.40;;;;;;;;;;4996684;28;20118;-68
2022/04/20 11:56:07;;;;;;;0.20;0.13;;;;;;;;;;4996608;28;20101;-68
2022/04/20 11:58:33;;;;;;;0.10;0.10;;;;;;;;;;4996116;28;20125;-68
2022/04/20 12:01:07;;;;;;;0.10;0.10;;;;;;;;;;4996573;28;20088;-69
2022/04/20 12:03:36;;;;;;;0.10;0.10;;;;;;;;;;5020925;28;20037;-71
2022/04/20 12:06:04;;;;;;;0.10;0.10;;;;;;;;;;5030010;28;20120;-67
2022/04/20 12:08:31;;;;;;;0.10;0.10;;;;;;;;;;5035453;28;20045;-67
2022/04/20 12:10:57;;;;;;;0.20;0.20;;;;;;;;;;5035129;28;20069;-67
2022/04/20 12:13:28;;;;;;;0.10;0.10;;;;;;;;;;5038505;28;20045;-68
2022/04/20 12:16:11;;;;;;;0.73;0.40;;;;;;;;;;5032842;28;20125;-67
2022/04/20 12:18:40;;;;;;;0.10;0.10;;;;;;;;;;5034573;28;20072;-68
2022/04/20 12:21:07;;;;;;;0.10;0.10;;;;;;;;;;5024874;28;20049;-68
2022/04/20 12:23:37;;;;;;;0.10;0.10;;;;;;;;;;5018639;28;20041;-68
2022/04/20 12:26:04;;;;;;;0.75;0.63;;;;;;;;;;5033955;28;20125;-68
2022/04/20 12:28:43;;;;;;;0.20;0.20;;;;;;;;;;5035061;28;20132;-68
2022/04/20 12:31:12;;;;;;;0.10;0.10;;;;;;;;;;5034595;28;20049;-68
2022/04/20 12:33:39;;;;;;;4.82;0.35;;;;;;;;;;5034400;28;20045;-68
2022/04/20 12:36:08;;;;;;;0.10;0.10;;;;;;;;;;5027335;28;20381;-68
2022/04/20 12:38:44;;;;;;;0.20;0.20;;;;;;;;;;4996774;28;20460;-68
2022/04/20 12:41:29;;;;;;;0.13;0.13;;;;;;;;;;5014701;28;20041;-68
2022/04/20 12:43:55;;;;;;;0.15;0.10;;;;;;;;;;5015510;28;20119;-68
2022/04/20 12:46:21;;;;;;;0.10;0.10;;;;;;;;;;5016767;28;20408;-68
2022/04/20 12:48:48;;;;;;;0.43;0.43;;;;;;;;;;5008019;28;20521;-68
2022/04/20 12:51:23;;;;;;;0.22;0.22;;;;;;;;;;4995203;28;20226;-68
2022/04/20 12:53:50;;;;;;;0.10;0.10;;;;;;;;;;4995275;28;20044;-68
2022/04/20 13:02:04;;;;;;;0.10;0.10;;;;;;;;;;4994982;28;20038;-68
2022/04/20 13:04:30;;;;;;;0.10;0.10;;;;;;;;;;4995496;28;20042;-68
2022/04/20 13:06:56;;;;;;;0.20;0.20;;;;;;;;;;4995375;28;20505;-68
2022/04/20 13:09:23;;;;;;;0.20;0.13;;;;;;;;;;4995676;28;20042;-68
2022/04/20 13:11:49;;;;;;;7.68;1.30;;;;;;;;;;4977730;28;20030;-68
2022/04/20 13:14:15;;;;;;;0.57;0.55;;;;;;;;;;4995273;28;20072;-68
2022/04/20 13:16:41;;;;;;;0.10;0.10;;;;;;;;;;4994970;28;20065;-68
2022/04/20 13:19:07;;;;;;;0.35;0.35;;;;;;;;;;4994903;28;20064;-68
2022/04/20 13:21:34;;;;;;;0.90;0.90;;;;;;;;;;4995138;28;20031;-68
2022/04/20 13:24:00;;;;;;;0.20;0.20;;;;;;;;;;4994851;28;20071;-68
2022/04/20 13:29:16;;;;;;;0.10;0.10;;;;;;;;;;4995678;28;20073;-68
2022/04/20 13:31:44;;;;;;;0.20;0.20;;;;;;;;;;4994825;28;20052;-68
2022/04/20 13:34:10;;;;;;;0.22;0.22;;;;;;;;;;4994948;28;20096;-68
2022/04/20 13:36:36;;;;;;;2.17;0.22;;;;;;;;;;4995112;28;20397;-68
2022/04/20 13:39:03;;;;;;;0.10;0.10;;;;;;;;;;4995351;28;20042;-68
2022/04/20 13:41:29;;;;;;;0.20;0.20;;;;;;;;;;5010154;28;20568;-69
2022/04/20 13:44:05;;;;;;;0.30;0.30;;;;;;;;;;5013242;28;20396;-69
2022/04/20 13:46:37;;;;;;;0.30;0.30;;;;;;;;;;5007641;28;20057;-67
2022/04/20 13:49:03;;;;;;;0.40;0.40;;;;;;;;;;5012915;28;20505;-67
2022/04/20 13:51:30;;;;;;;0.30;0.30;;;;;;;;;;5014653;28;20088;-68
2022/04/20 13:53:57;;;;;;;0.75;0.55;;;;;;;;;;5000630;28;20493;-67
2022/04/20 13:56:23;;;;;;;0.15;0.13;;;;;;;;;;5013940;28;20033;-68
2022/04/20 13:58:49;;;;;;;0.63;0.63;;;;;;;;;;5014531;28;20072;-68
2022/04/20 14:01:16;;;;;;;0.10;0.10;;;;;;;;;;5006498;28;20042;-68
2022/04/20 14:03:43;;;;;;;0.10;0.10;;;;;;;;;;5019385;28;20041;-68
2022/04/20 14:06:10;;;;;;;0.47;0.47;;;;;;;;;;5020625;28;20061;-68
2022/04/20 14:08:36;;;;;;;0.50;0.50;;;;;;;;;;5019135;28;20041;-67
2022/04/20 14:11:02;;;;;;;0.30;0.30;;;;;;;;;;5018047;28;20042;-67
2022/04/20 14:13:28;;;;;;;0.47;0.47;;;;;;;;;;5018003;28;20045;-68
2022/04/20 14:15:54;;;;;;;0.93;0.55;;;;;;;;;;5020191;28;20104;-67
2022/04/20 14:18:20;;;;;;;0.45;0.45;;;;;;;;;;5016052;28;20088;-67
2022/04/20 14:20:47;;;;;;;0.30;0.30;;;;;;;;;;5016854;28;20045;-67
2022/04/20 14:23:13;;;;;;;0.90;0.85;;;;;;;;;;5017773;28;20088;-67
2022/04/20 14:33:53;;;;;;;0.15;0.15;;;;;;;;;;5015803;28;20400;-67
2022/04/20 14:36:19;;;;;;;0.10;0.10;;;11.70;99.90;;;;;;5016174;28;20049;-68
2022/04/20 14:38:45;;;;;;;0.15;0.15;;;;;;;;;;5011871;28;20033;-68
2022/04/20 14:41:13;;;;;;;0.30;0.30;;;;;;;;;;5016254;28;20130;-68
2022/04/20 14:43:39;;;;;;;0.10;0.10;;;;;;;;;;5015332;28;20048;-68
2022/04/20 14:46:05;;;;;;;0.25;0.25;;;11.60;99.90;;;;;;5014562;28;20050;-69
2022/04/20 14:48:31;;;;;;;0.80;0.50;;;11.80;99.90;;;;;;5016817;28;20049;-68
2022/04/20 14:50:57;;;;;;;0.73;0.73;;;11.70;99.90;;;;;;5017437;28;20504;-68
2022/04/20 14:53:23;;;;;;;0.73;0.73;;;11.60;99.90;;;;;;5016833;28;20038;-68
2022/04/20 14:55:49;;;;;;;0.65;0.65;;;11.60;99.90;;;;;;5014449;28;20509;-68
2022/04/20 14:58:15;;;;;;;0.25;0.25;;;11.70;99.90;;;;;;5015725;28;20038;-68
2022/04/20 15:00:41;;;;;;;0.47;0.47;;;11.80;99.90;;;;;;5015448;28;20103;-68
2022/04/20 15:03:08;;;;;;;0.10;0.10;;;11.80;99.90;;;;;;5015756;28;20655;-68
2022/04/20 15:05:35;;;;;;;0.63;0.63;;;11.40;99.90;;;;;;5015740;28;20046;-68
2022/04/20 15:08:01;;;;;;;0.47;0.40;;;11.40;99.90;;;;;;5015318;28;20111;-67
2022/04/20 15:10:27;;;;;;;0.20;0.20;;;11.40;99.90;;;;;;5015196;28;20049;-67
2022/04/20 15:12:55;;;;;;;0.30;0.30;;;11.40;99.90;;;;;;5014340;28;20088;-68
2022/04/20 15:15:20;;;;;;;0.30;0.30;;;11.40;99.90;;;;;;5014299;28;20052;-68
2022/04/20 15:17:47;;;;;;;0.15;0.15;;;11.40;99.90;;;;;;5016043;28;20124;-68
2022/04/20 15:20:13;;;;;;;0.10;0.10;;;11.20;99.90;;;;;;5013458;28;20134;-68
2022/04/20 15:22:40;;;;;;;0.90;0.35;;;11.00;99.90;;;;;;5016360;28;20117;-68
2022/04/20 15:25:06;;;;;;;0.10;0.10;;;11.00;99.90;;;;;;5016398;28;20042;-68
2022/04/20 15:27:32;;;;;;;0.25;0.25;;;11.00;99.90;;;;;;5015870;28;20050;-68
2022/04/20 15:29:58;;;;;;;0.17;0.17;;;11.10;99.90;;;;;;5015898;28;20096;-69
2022/04/20 15:32:25;;;;;;;0.25;0.25;;;11.20;99.90;;;;;;5015975;28;20069;-68
2022/04/20 15:34:51;;;;;;;0.50;0.50;;;11.10;99.90;;;;;;5015819;28;20037;-68